Cutler, Indiana
Current Conditions -  °F | °C
As of 9:35 AM on Friday 31 Oct 2014 (Local Time) from KFKR Reporting Station
Light Rain Light Rain  
Wind Chill: 30°   Ceiling: 1300
Heat Index: 39°   Visibility: 4mi
Dew Point: 39°   Wind: 20mph
Humidity: 100%   Direction: 310°NW
Pressure: 30.04"   Gusts: 29mph
Location:  40.48°N, 86.52°W
Report Text: KFKR 311335Z AUTO 31017G25KT 4SM -RA OVC013 04/04 A3004 RMK AO2 P0003 T00400040
Loading
Personal Weather Stations






























Interactive Weather Map
Tropical Storm Tracking
New forecast layout! Learn more

10-Day Weather Forecast

Advertisements
Track Severe Weather on mobile